• Join FlightAware (Why Join?)
  • Login
  • US Flag 
06:36PM EDT


 

Airport Tracker/Info


-or-


 

Live Flight TrackerFlight Track Log ✈ ASQ6151 ✈ 06-Jul-2013 ✈ KBWI - KORD

Flight Track Log - Related Links

Times and Time Zones

All times are in EDT time to prevent confusion due to time zone crossing. See the ASQ6151 flight status page for this flight to view local times or setup timezone preferences in your user account.

Time Position Orientation Groundspeed Altitude Reporting Facility
EDT Latitude Longitude Course Direction KTS MPH feet Rate Location/Type
05:49AM 39.1833 -76.7000 270° West 171 197 1,700  Level Potomac TRACON
05:50AM 39.1833 -76.7833 270° West 223 257 3,100 1,980 Climbing Potomac TRACON
05:51AM 39.2000 -76.8667 284° West 248 285 5,500 2,400 Climbing Potomac TRACON
05:52AM 39.2167 -76.9500 284° West 258 297 7,900 2,340 Climbing Potomac TRACON
05:53AM 39.2000 -77.0500 258° West 261 300 10,200 1,680 Climbing Potomac TRACON
05:55AM 39.1475 -77.2883 254° West 297 342 13,700 1,320 Climbing Washington Center
05:56AM 39.1294 -77.3736 255° West 303 349 14,800 1,320 Climbing Washington Center
05:57AM 39.1044 -77.5094 257° West 317 365 16,400 1,500 Climbing Washington Center
05:58AM 39.0819 -77.6211 255° West 322 371 17,900 1,500 Climbing Washington Center
05:59AM 39.0592 -77.7300 255° West 317 365 19,500 1,560 Climbing Washington Center
06:00AM 39.0383 -77.8392 256° West 317 365 21,100 1,620 Climbing Washington Center
06:01AM 39.0175 -77.9506 256° West 317 365 22,800 1,320 Climbing Washington Center
06:02AM 38.9922 -78.0594 253° West 317 365 23,800 1,260 Climbing Washington Center
06:03AM 38.9692 -78.1708 255° West 317 365 25,300 1,500 Climbing Washington Center
06:04AM 38.9603 -78.2853 264° West 317 365 26,900 1,320 Climbing Washington Center
06:05AM 38.9661 -78.4003 274° West 317 365 28,000 1,020 Climbing Washington Center
06:06AM 38.9692 -78.5286 272° West 338 389 29,000 960 Climbing Washington Center
06:07AM 38.9725 -78.6542 272° West 350 403 30,000 960 Climbing Washington Center
06:08AM 38.9753 -78.7850 272° West 368 423 31,000 960 Climbing Washington Center
06:09AM 38.9800 -78.9189 273° West 368 423 32,000 960 Climbing Washington Center
06:10AM 38.9847 -79.0500 273° West 373 429 33,000 960 Climbing Washington Center
06:11AM 38.9889 -79.1917 272° West 383 441 34,000 960 Climbing Washington Center
06:12AM 38.9908 -79.3333 271° West 389 448 35,000 900 Climbing Washington Center
06:13AM 38.9947 -79.4725 272° West 395 455 35,900 480 Climbing Washington Center
06:14AM 39.0000 -79.6222 273° West 395 455 36,000  Climbing Washington Center
06:15AM 39.0033 -79.7719 272° West 421 484 36,000  Level Washington Center
06:16AM 39.0047 -79.9139 271° West 421 484 36,000  Level Washington Center
06:17AM 39.0031 -80.0111 269° West 402 463 36,000  Level Indianapolis Center
06:18AM 39.0061 -80.1581 272° West 393 452 36,000  Level Indianapolis Center
06:19AM 39.0069 -80.2981 270° West 393 452 36,000  Level Indianapolis Center
06:20AM 39.0086 -80.4397 271° West 396 456 36,000  Level Indianapolis Center
06:21AM 39.0119 -80.5822 272° West 399 459 36,000  Level Indianapolis Center
06:22AM 39.0133 -80.7247 271° West 400 460 36,000  Level Indianapolis Center
06:23AM 39.0344 -80.8644 281° West 408 470 36,000  Level Indianapolis Center
06:24AM 39.0889 -80.9961 298° West 417 480 36,000  Level Indianapolis Center
06:25AM 39.1447 -81.1272 299° West 420 483 36,000  Level Indianapolis Center
06:26AM 39.1983 -81.2600 298° West 421 484 36,000  Level Indianapolis Center
06:27AM 39.2525 -81.3917 298° West 419 482 36,000  Level Indianapolis Center
06:28AM 39.3064 -81.5236 298° West 418 481 36,000  Level Indianapolis Center
06:29AM 39.3722 -81.6853 298° West 424 488 36,000  Level Indianapolis Center
06:30AM 39.4281 -81.8256 297° West 438 504 36,000  Level Indianapolis Center
06:31AM 39.4842 -81.9650 298° West 438 504 36,000  Level Indianapolis Center
06:32AM 39.5389 -82.1025 297° West 432 497 36,000  Level Indianapolis Center
06:33AM 39.5933 -82.2406 297° West 426 490 36,000  Level Indianapolis Center
06:34AM 39.6486 -82.3783 298° West 428 493 36,000  Level Indianapolis Center
06:35AM 39.7025 -82.5167 297° West 426 490 36,000  Level Indianapolis Center
06:36AM 39.7575 -82.6542 298° West 427 491 36,000  Level Indianapolis Center
06:37AM 39.8119 -82.7933 297° West 429 494 36,000  Level Indianapolis Center
06:38AM 39.8661 -82.9325 297° West 428 493 36,000  Level Indianapolis Center
06:39AM 39.9200 -83.0714 297° West 429 494 36,000  Level Indianapolis Center
06:40AM 39.9775 -83.2089 299° West 431 496 36,000  Level Indianapolis Center
06:41AM 40.0475 -83.3397 305° West 441 507 36,000  Level Indianapolis Center
06:42AM 40.1153 -83.4722 304° West 441 507 36,000  Level Indianapolis Center
06:43AM 40.1839 -83.6050 304° West 441 507 36,000  Level Indianapolis Center
06:44AM 40.2508 -83.7369 304° West 436 502 36,000 -240 Level Indianapolis Center
06:45AM 40.3197 -83.8700 304° West 437 503 35,600 -720 Descending Indianapolis Center
06:46AM 40.3886 -84.0056 304° West 442 509 34,600 -840 Descending Indianapolis Center
06:47AM 40.4581 -84.1422 304° West 446 513 34,000 -300 Descending Indianapolis Center
06:48AM 40.5286 -84.2814 304° West 454 522 34,000  Level Indianapolis Center
06:49AM 40.5997 -84.4222 304° West 458 527 34,000  Level Indianapolis Center
06:50AM 40.6703 -84.5631 303° West 457 526 34,000  Level Indianapolis Center
06:51AM 40.7414 -84.7033 304° West 456 525 34,000  Level Indianapolis Center
06:53AM 40.8117 -84.8444 303° West 457 526 34,000 -720 Level Indianapolis Center
06:53AM 40.8711 -84.9811 300° West 451 519 32,600 -1,800 Descending Chicago Center
06:54AM 40.9128 -85.1211 292° West 417 480 30,500 -1,320 Descending Chicago Center
06:55AM 40.9544 -85.2586 292° West 405 466 30,000 -300 Descending Chicago Center
06:57AM 40.9975 -85.3994 292° West 411 473 30,000 -720 Level Chicago Center
06:58AM 41.0419 -85.5464 292° West 424 488 28,600 -1,740 Descending Chicago Center
06:59AM 41.0886 -85.7033 292° West 452 520 26,600 -1,980 Descending Chicago Center
07:00AM 41.1397 -85.8636 293° West 466 536 24,700 -1,980 Descending Chicago Center
07:01AM 41.1900 -86.0128 294° West 451 519 22,700 -2,040 Descending Chicago Center
07:02AM 41.2369 -86.1586 293° West 430 495 20,700 -1,860 Descending Chicago Center
07:03AM 41.2828 -86.3003 293° West 419 482 19,000 -900 Descending Chicago Center
07:04AM 41.3267 -86.4369 293° West 405 466 19,000 -660 Level Chicago Center
07:05AM 41.3697 -86.5725 293° West 399 459 17,700 -1,200 Descending Chicago Center
07:06AM 41.4119 -86.7058 293° West 393 452 16,600 -1,200 Descending Chicago Center
07:07AM 41.4572 -86.8464 293° West 404 465 15,400 -1,320 Descending Chicago Center
07:08AM 41.4989 -86.9797 293° West 397 457 14,000 -1,440 Descending Chicago Center
07:09AM 41.5400 -87.1089 293° West 386 444 12,600 -1,020 Descending Chicago Center
07:10AM 41.5797 -87.2347 293° West 377 434 12,000 -1,020 Descending Chicago Center
07:11AM 41.6425 -87.3436 308° West 372 428 10,600 -1,020 Descending Chicago Center
07:12AM 41.7172 -87.4683 309° West 365 420 10,000 -360 Descending Chicago Center
07:13AM 41.7797 -87.5708 309° West 359 413 9,900 -600 Descending Chicago Center
07:14AM 41.8303 -87.6539 309° West 296 341 8,800 -1,380 Descending Chicago Center
07:15AM 41.8928 -87.7000 331° Northwest 291 335 7,100 -960 Descending Chicago Center
07:16AM 41.9656 -87.7044 357° North 267 307 6,900 -900 Descending Chicago Center
07:17AM 42.0344 -87.7081 358° North 252 290 5,400 -1,560 Descending Chicago Center
07:18AM 42.0956 -87.7256 348° North 253 291 3,800 -1,440 Descending Chicago Center
07:19AM 42.0892 -87.7978 263° West 219 252 2,500 -900 Descending Chicago Center
07:20AM 42.0494 -87.8428 220° Southwest 209 241 2,000 -660 Descending Chicago Center
07:21AM 42.0167 -87.8833 223° Southwest 130 150 1,200 -840 Descending Chicago TRACON
07:23AM 41.9817 -87.9067 217° Southwest  Level Estimated